createdAt,value
2023-04-28T00:00:13.701Z,75.60
2023-04-28T00:02:41.653Z,75.70
2023-04-28T00:05:10.223Z,75.80
2023-04-28T00:07:38.145Z,76.10
2023-04-28T00:10:07.570Z,76.60
2023-04-28T00:12:35.316Z,76.80
2023-04-28T00:15:03.971Z,76.80
2023-04-28T00:17:32.350Z,76.80
2023-04-28T00:20:00.526Z,76.80
2023-04-28T00:22:28.279Z,77.00
2023-04-28T00:24:56.783Z,77.20
2023-04-28T00:27:30.630Z,78.00
2023-04-28T00:29:59.806Z,78.40
2023-04-28T00:32:27.618Z,78.90
2023-04-28T00:34:55.794Z,79.30
2023-04-28T00:37:23.420Z,79.10
2023-04-28T00:39:56.271Z,79.80
2023-04-28T00:42:24.460Z,80.30
2023-04-28T00:44:52.404Z,80.60
2023-04-28T00:47:21.209Z,80.70
2023-04-28T00:49:49.890Z,80.90
2023-04-28T00:52:17.723Z,81.60
2023-04-28T00:54:47.773Z,82.00
2023-04-28T00:57:15.760Z,82.40
2023-04-28T00:59:44.065Z,82.80
2023-04-28T01:02:13.598Z,83.10
2023-04-28T01:04:41.422Z,83.30
2023-04-28T01:07:09.485Z,83.40
2023-04-28T01:09:40.653Z,84.60
2023-04-28T01:12:11.090Z,84.10
2023-04-28T01:14:46.970Z,84.50
2023-04-28T01:17:15.646Z,85.20
2023-04-28T01:19:45.144Z,85.40
2023-04-28T01:22:17.709Z,85.90
2023-04-28T01:24:45.200Z,86.30
2023-04-28T01:27:14.452Z,87.20
2023-04-28T01:29:42.613Z,87.80
2023-04-28T01:32:10.786Z,88.50
2023-04-28T01:34:41.811Z,89.90
2023-04-28T01:37:09.261Z,89.50
2023-04-28T01:39:38.380Z,90.00
2023-04-28T01:42:06.238Z,90.20
2023-04-28T01:44:34.345Z,90.40
2023-04-28T01:47:01.830Z,90.70
2023-04-28T01:49:30.259Z,90.80
2023-04-28T01:51:58.320Z,91.10
2023-04-28T01:54:26.509Z,91.50
2023-04-28T01:56:54.213Z,91.80
2023-04-28T01:59:22.753Z,92.30
2023-04-28T02:01:51.104Z,92.20
2023-04-28T02:04:19.133Z,92.50
2023-04-28T02:06:46.716Z,92.80
2023-04-28T02:09:17.976Z,93.00
2023-04-28T02:11:45.522Z,93.20
2023-04-28T02:14:13.602Z,93.40
2023-04-28T02:16:41.778Z,93.50
2023-04-28T02:19:09.520Z,93.70
2023-04-28T02:21:36.900Z,94.00
2023-04-28T02:24:05.200Z,94.10
2023-04-28T02:26:34.701Z,94.30
2023-04-28T02:29:03.981Z,95.00
2023-04-28T02:31:33.617Z,94.90
2023-04-28T02:34:01.574Z,95.10
2023-04-28T02:36:29.199Z,95.30
2023-04-28T02:38:57.210Z,95.50
2023-04-28T02:41:24.693Z,95.50
2023-04-28T02:43:53.739Z,95.20
2023-04-28T02:46:27.360Z,94.00
2023-04-28T02:48:55.561Z,93.40
2023-04-28T02:51:24.132Z,93.20
2023-04-28T02:53:52.316Z,93.50
2023-04-28T02:56:20.123Z,94.00
2023-04-28T02:58:47.830Z,94.20
2023-04-28T03:01:15.239Z,94.30
2023-04-28T03:03:43.550Z,94.50
2023-04-28T03:06:11.096Z,94.60
2023-04-28T03:08:39.030Z,94.30
2023-04-28T03:11:06.915Z,94.30
2023-04-28T03:13:37.067Z,94.70
2023-04-28T03:16:05.952Z,94.80
2023-04-28T03:18:33.812Z,94.90
2023-04-28T03:21:01.865Z,94.90
2023-04-28T03:23:29.778Z,95.10
2023-04-28T03:25:57.520Z,95.40
2023-04-28T03:28:25.816Z,95.70
2023-04-28T03:30:53.571Z,95.80
2023-04-28T03:33:22.267Z,96.10
2023-04-28T03:35:59.191Z,96.60
2023-04-28T03:38:32.851Z,96.80
2023-04-28T03:41:00.681Z,97.30
2023-04-28T03:43:37.707Z,97.70
2023-04-28T03:46:16.155Z,97.70
2023-04-28T03:48:44.250Z,97.90
2023-04-28T03:51:12.129Z,98.00
2023-04-28T03:53:40.089Z,98.30
2023-04-28T03:56:08.601Z,98.40
2023-04-28T03:58:36.936Z,98.60
2023-04-28T04:01:05.432Z,99.10
2023-04-28T04:03:34.907Z,99.70
2023-04-28T04:06:02.638Z,99.90
2023-04-28T04:08:30.148Z,99.90
2023-04-28T04:11:01.056Z,99.90
2023-04-28T04:13:29.258Z,99.90
2023-04-28T04:15:57.013Z,99.90
2023-04-28T04:18:24.915Z,99.90
2023-04-28T04:21:12.928Z,99.90
2023-04-28T04:23:40.901Z,99.90
2023-04-28T04:26:08.703Z,99.90
2023-04-28T04:28:36.244Z,99.90
2023-04-28T04:31:20.883Z,99.90
2023-04-28T04:33:49.224Z,99.90
2023-04-28T04:36:18.081Z,99.90
2023-04-28T04:38:45.634Z,99.90
2023-04-28T04:41:18.846Z,99.90
2023-04-28T04:43:47.896Z,99.90
2023-04-28T04:46:15.634Z,99.90
2023-04-28T04:48:44.634Z,99.90
2023-04-28T04:51:12.980Z,99.90
2023-04-28T04:53:40.796Z,99.90
2023-04-28T04:56:08.419Z,99.90
2023-04-28T04:58:37.341Z,99.90
2023-04-28T05:01:12.625Z,99.90
2023-04-28T05:04:00.350Z,99.90
2023-04-28T05:06:28.489Z,99.90
2023-04-28T05:08:57.990Z,99.90
2023-04-28T05:11:26.654Z,99.90
2023-04-28T05:13:54.180Z,99.90
2023-04-28T05:16:22.911Z,99.90
2023-04-28T05:19:01.144Z,99.90
2023-04-28T05:21:28.966Z,99.90
2023-04-28T05:24:02.006Z,99.90
2023-04-28T05:26:30.332Z,99.90
2023-04-28T05:28:59.996Z,99.90
2023-04-28T05:31:27.836Z,99.90
2023-04-28T05:33:55.826Z,99.90
2023-04-28T05:36:23.383Z,99.90
2023-04-28T05:38:51.560Z,99.90
2023-04-28T05:41:19.818Z,99.90
2023-04-28T05:43:48.035Z,99.90
2023-04-28T05:46:35.595Z,99.90
2023-04-28T05:49:03.692Z,99.90
2023-04-28T05:51:34.890Z,99.90
2023-04-28T05:54:03.080Z,99.90
2023-04-28T05:56:30.995Z,99.90
2023-04-28T05:58:59.411Z,99.90
2023-04-28T06:01:27.241Z,99.90
2023-04-28T06:03:56.960Z,99.90
2023-04-28T06:06:26.783Z,99.90
2023-04-28T06:09:15.018Z,99.90
2023-04-28T06:11:43.084Z,99.90
2023-04-28T06:14:10.629Z,99.90
2023-04-28T06:16:38.584Z,99.90
2023-04-28T06:19:06.294Z,99.90
2023-04-28T06:21:35.394Z,99.90
2023-04-28T06:24:04.915Z,99.90
2023-04-28T06:26:32.953Z,99.90
2023-04-28T06:29:01.920Z,99.90
2023-04-28T06:31:30.239Z,99.90
2023-04-28T06:33:58.812Z,99.90
2023-04-28T06:36:27.102Z,99.90
2023-04-28T06:38:55.745Z,99.90
2023-04-28T06:41:23.050Z,99.90
2023-04-28T06:43:52.516Z,99.90
2023-04-28T06:46:27.922Z,99.90
2023-04-28T06:48:55.416Z,99.90
2023-04-28T06:51:23.040Z,99.90
2023-04-28T06:53:53.728Z,99.90
2023-04-28T06:56:23.985Z,99.90
2023-04-28T06:58:51.985Z,99.90
2023-04-28T07:01:19.748Z,99.90
2023-04-28T07:03:51.447Z,99.90
2023-04-28T07:06:19.291Z,99.90
2023-04-28T07:08:47.275Z,99.90
2023-04-28T07:11:14.515Z,99.90
2023-04-28T07:13:43.251Z,99.90
2023-04-28T07:16:11.438Z,99.90
2023-04-28T07:18:39.151Z,99.90
2023-04-28T07:21:06.918Z,99.90
2023-04-28T07:23:36.238Z,99.90
2023-04-28T07:26:04.081Z,99.90
2023-04-28T07:28:32.184Z,99.90
2023-04-28T07:30:59.600Z,99.90
2023-04-28T07:33:27.508Z,99.90
2023-04-28T07:35:55.554Z,99.90
2023-04-28T07:38:23.864Z,99.30
2023-04-28T07:43:21.814Z,97.20
2023-04-28T07:45:51.327Z,96.30
2023-04-28T07:48:19.256Z,93.30
2023-04-28T07:50:47.447Z,94.10
2023-04-28T07:53:15.283Z,93.60
2023-04-28T07:55:43.537Z,94.00
2023-04-28T07:58:11.381Z,94.40
2023-04-28T08:00:41.058Z,93.80
2023-04-28T08:03:09.328Z,94.00
2023-04-28T08:05:37.040Z,93.70
2023-04-28T08:08:07.661Z,93.60
2023-04-28T08:10:35.505Z,93.70
2023-04-28T08:13:06.646Z,93.00
2023-04-28T08:15:34.949Z,93.40
2023-04-28T08:18:03.784Z,94.30
2023-04-28T08:20:32.947Z,94.90
2023-04-28T08:23:00.332Z,94.90
2023-04-28T08:25:30.834Z,95.10
2023-04-28T08:27:59.065Z,95.40
2023-04-28T08:30:26.976Z,95.50
2023-04-28T08:32:54.952Z,96.10
2023-04-28T08:35:22.713Z,95.90
2023-04-28T08:37:51.181Z,95.70
2023-04-28T08:40:19.633Z,95.80
2023-04-28T08:42:47.823Z,96.00
2023-04-28T08:45:16.140Z,96.50
2023-04-28T08:47:48.691Z,96.80
2023-04-28T08:50:18.640Z,97.40
2023-04-28T08:52:47.782Z,97.10
2023-04-28T08:55:17.360Z,97.00
2023-04-28T08:57:50.084Z,97.10
2023-04-28T09:00:18.753Z,97.30
2023-04-28T09:02:46.806Z,96.90
2023-04-28T09:05:15.247Z,96.60
2023-04-28T09:07:50.315Z,96.80
2023-04-28T09:10:25.350Z,97.00
2023-04-28T09:12:54.429Z,97.30
2023-04-28T09:15:33.900Z,96.30
2023-04-28T09:18:06.694Z,96.10
2023-04-28T09:20:36.657Z,96.10
2023-04-28T09:23:16.470Z,94.90
2023-04-28T09:26:11.394Z,92.80
2023-04-28T09:28:39.528Z,93.20
2023-04-28T09:31:09.388Z,93.70
2023-04-28T09:33:37.407Z,93.90
2023-04-28T09:36:05.770Z,94.20
2023-04-28T09:41:14.200Z,94.00
2023-04-28T09:43:45.855Z,93.80
2023-04-28T09:46:17.685Z,91.50
2023-04-28T09:48:45.501Z,91.30
2023-04-28T09:51:17.653Z,91.20
2023-04-28T09:53:45.738Z,91.10
2023-04-28T09:56:14.019Z,90.60
2023-04-28T09:58:43.778Z,90.50
2023-04-28T10:01:13.375Z,86.80
2023-04-28T10:03:42.258Z,84.00
2023-04-28T10:06:10.703Z,83.10
2023-04-28T10:08:38.298Z,82.60
2023-04-28T10:11:06.983Z,79.20
2023-04-28T10:13:36.055Z,79.50
2023-04-28T10:16:04.996Z,79.70
2023-04-28T10:18:36.018Z,80.00
2023-04-28T10:21:04.903Z,77.70
2023-04-28T10:24:02.779Z,73.50
2023-04-28T10:27:00.309Z,74.60
2023-04-28T10:29:28.172Z,73.10
2023-04-28T10:32:18.561Z,74.10
2023-04-28T10:34:47.850Z,71.90
2023-04-28T10:37:29.648Z,73.20
2023-04-28T10:40:36.112Z,71.10
2023-04-28T10:43:04.646Z,72.20
2023-04-28T10:45:57.885Z,69.50
2023-04-28T10:48:50.665Z,67.10
2023-04-28T10:51:22.900Z,65.30
2023-04-28T10:53:54.901Z,67.50
2023-04-28T10:56:26.165Z,67.20
2023-04-28T10:59:00.872Z,66.70
2023-04-28T11:01:29.992Z,64.10
2023-04-28T11:04:13.445Z,66.00
2023-04-28T11:06:44.211Z,65.40
2023-04-28T11:09:18.698Z,63.80
2023-04-28T11:12:02.544Z,63.10
2023-04-28T11:14:34.219Z,63.60
2023-04-28T11:17:07.040Z,64.30
2023-04-28T11:19:40.858Z,63.20
2023-04-28T11:22:17.349Z,60.90
2023-04-28T11:25:00.523Z,60.80
2023-04-28T11:27:30.240Z,63.00
2023-04-28T11:29:57.987Z,61.30
2023-04-28T11:32:34.862Z,59.00
2023-04-28T11:35:04.817Z,59.60
2023-04-28T11:37:32.801Z,61.10
2023-04-28T11:40:05.755Z,56.50
2023-04-28T11:42:34.446Z,56.40
2023-04-28T11:45:02.282Z,55.90
2023-04-28T11:47:33.898Z,57.50
2023-04-28T11:50:04.298Z,58.10
2023-04-28T11:52:32.757Z,58.50
2023-04-28T11:55:02.549Z,59.20
2023-04-28T11:57:30.439Z,58.10
2023-04-28T12:00:17.959Z,59.30
2023-04-28T12:02:47.306Z,59.10
2023-04-28T12:05:15.634Z,60.90
2023-04-28T12:07:44.760Z,61.20
2023-04-28T12:10:17.418Z,60.10
2023-04-28T12:12:52.060Z,59.70
2023-04-28T12:15:16.696Z,60.00
2023-04-28T12:17:46.112Z,60.50
2023-04-28T12:20:35.441Z,61.70
2023-04-28T12:23:03.222Z,62.90
2023-04-28T12:25:31.181Z,62.40
2023-04-28T12:28:08.141Z,64.40
2023-04-28T12:30:39.495Z,64.30
2023-04-28T12:33:25.544Z,64.40
2023-04-28T12:35:57.541Z,64.10
2023-04-28T12:38:26.402Z,64.20
2023-04-28T12:40:58.338Z,62.00
2023-04-28T12:43:27.487Z,59.50
2023-04-28T12:45:57.095Z,61.40
2023-04-28T12:48:25.607Z,61.20
2023-04-28T12:50:53.669Z,60.10
2023-04-28T12:53:21.087Z,59.60
2023-04-28T12:55:49.392Z,59.40
2023-04-28T12:58:18.581Z,59.90
2023-04-28T13:00:47.160Z,60.00
2023-04-28T13:03:16.095Z,59.50
2023-04-28T13:05:44.453Z,58.60
2023-04-28T13:08:12.581Z,61.60
2023-04-28T13:10:41.422Z,63.00
2023-04-28T13:13:08.986Z,64.40
2023-04-28T13:15:38.792Z,65.40
2023-04-28T13:18:06.942Z,68.20
2023-04-28T13:20:35.027Z,60.40
2023-04-28T13:23:03.066Z,60.90
2023-04-28T13:25:31.428Z,59.90
2023-04-28T13:27:59.102Z,60.30
2023-04-28T13:30:27.122Z,60.40
2023-04-28T13:32:56.872Z,63.20
2023-04-28T13:35:25.568Z,59.80
2023-04-28T13:37:55.071Z,59.40
2023-04-28T13:40:23.115Z,56.50
2023-04-28T13:42:54.267Z,57.40
2023-04-28T13:45:22.871Z,58.50
2023-04-28T13:47:51.359Z,59.70
2023-04-28T13:50:19.269Z,57.90
2023-04-28T13:52:47.632Z,56.30
2023-04-28T13:55:15.400Z,56.90
2023-04-28T13:57:42.738Z,55.80
2023-04-28T14:00:11.941Z,54.50
2023-04-28T14:02:40.219Z,54.90
2023-04-28T14:05:08.873Z,52.90
2023-04-28T14:07:36.632Z,52.10
2023-04-28T14:10:06.375Z,50.60
2023-04-28T14:12:34.420Z,52.90
2023-04-28T14:15:02.435Z,51.40
2023-04-28T14:17:31.048Z,50.20
2023-04-28T14:19:59.377Z,50.30
2023-04-28T14:22:26.840Z,50.80
2023-04-28T14:24:54.677Z,49.70
2023-04-28T14:27:24.833Z,51.10
2023-04-28T14:29:53.889Z,51.00
2023-04-28T14:32:21.960Z,49.70
2023-04-28T14:34:50.138Z,50.40
2023-04-28T14:37:18.378Z,50.10
2023-04-28T14:39:46.009Z,48.90
2023-04-28T14:42:13.877Z,46.40
2023-04-28T14:44:41.723Z,45.90
2023-04-28T14:47:09.823Z,45.30
2023-04-28T14:49:37.748Z,44.70
2023-04-28T14:52:06.687Z,45.60
2023-04-28T14:54:37.322Z,45.80
2023-04-28T14:57:05.448Z,48.80
2023-04-28T14:59:33.723Z,47.80
2023-04-28T15:02:02.794Z,48.70
2023-04-28T15:04:31.187Z,49.20
2023-04-28T15:07:00.127Z,47.80
2023-04-28T15:09:28.567Z,48.50
2023-04-28T15:11:56.107Z,47.80
2023-04-28T15:14:26.877Z,47.70
2023-04-28T15:16:54.851Z,47.80
2023-04-28T15:19:23.211Z,45.70
2023-04-28T15:21:51.113Z,45.50
2023-04-28T15:24:21.587Z,44.70
2023-04-28T15:26:49.930Z,43.10
2023-04-28T15:29:17.991Z,43.90
2023-04-28T15:31:45.866Z,45.90
2023-04-28T15:34:13.798Z,45.40
2023-04-28T15:36:42.639Z,44.90
2023-04-28T15:39:12.576Z,45.60
2023-04-28T15:41:40.310Z,45.70
2023-04-28T15:44:09.749Z,47.00
2023-04-28T15:46:38.600Z,44.30
2023-04-28T15:49:06.170Z,43.90
2023-04-28T15:51:33.706Z,43.80
2023-04-28T15:54:01.412Z,44.30
2023-04-28T15:56:32.249Z,44.20
2023-04-28T15:58:59.856Z,44.70
2023-04-28T16:01:31.371Z,45.30
2023-04-28T16:03:59.503Z,45.50
2023-04-28T16:06:27.463Z,45.60
2023-04-28T16:08:57.067Z,46.00
2023-04-28T16:11:24.926Z,46.30
2023-04-28T16:13:53.055Z,47.00
2023-04-28T16:16:23.672Z,46.70
2023-04-28T16:18:51.473Z,47.60
2023-04-28T16:21:19.499Z,48.30
2023-04-28T16:23:47.725Z,47.60
2023-04-28T16:26:15.338Z,49.00
2023-04-28T16:28:42.938Z,48.50
2023-04-28T16:31:12.289Z,49.00
2023-04-28T16:33:39.538Z,49.20
2023-04-28T16:36:07.407Z,49.90
2023-04-28T16:38:35.978Z,50.80
2023-04-28T16:41:03.708Z,50.10
2023-04-28T16:43:33.095Z,50.10
2023-04-28T16:46:01.097Z,50.20
2023-04-28T16:48:28.560Z,50.40
2023-04-28T16:50:57.830Z,51.00
2023-04-28T16:53:25.642Z,51.20
2023-04-28T16:55:54.198Z,51.40
2023-04-28T16:58:22.818Z,51.40
2023-04-28T17:00:51.158Z,52.50
2023-04-28T17:03:19.334Z,52.10
2023-04-28T17:05:47.292Z,52.20
2023-04-28T17:08:18.546Z,52.70
2023-04-28T17:10:45.984Z,53.60
2023-04-28T17:13:13.828Z,54.10
2023-04-28T17:15:41.808Z,54.10
2023-04-28T17:18:10.470Z,54.60
2023-04-28T17:20:40.023Z,55.30
2023-04-28T17:23:07.800Z,55.50
2023-04-28T17:25:38.747Z,55.50
2023-04-28T17:28:07.385Z,55.60
2023-04-28T17:30:38.494Z,56.40
2023-04-28T17:33:06.690Z,56.50
2023-04-28T17:35:34.223Z,56.70
2023-04-28T17:38:02.202Z,56.90
2023-04-28T17:40:30.637Z,57.20
2023-04-28T17:42:58.963Z,56.90
2023-04-28T17:45:26.799Z,57.00
2023-04-28T17:47:56.629Z,57.30
2023-04-28T17:50:24.156Z,57.80
2023-04-28T17:52:52.417Z,58.70
2023-04-28T17:55:21.214Z,58.70
2023-04-28T17:57:52.588Z,58.90
2023-04-28T18:00:20.738Z,59.20
2023-04-28T18:02:48.216Z,59.70
2023-04-28T18:05:18.627Z,59.30
2023-04-28T18:07:47.447Z,59.70
2023-04-28T18:10:16.426Z,60.30
2023-04-28T18:12:45.637Z,61.00
2023-04-28T18:15:14.155Z,62.90
2023-04-28T18:17:41.904Z,64.00
2023-04-28T18:20:10.558Z,65.70
2023-04-28T18:22:39.464Z,67.20
2023-04-28T18:25:07.836Z,68.50
2023-04-28T18:27:35.629Z,69.60
2023-04-28T18:30:04.857Z,70.60
2023-04-28T18:32:34.144Z,72.00
2023-04-28T18:35:01.729Z,72.30
2023-04-28T18:37:30.356Z,73.80
2023-04-28T18:39:58.107Z,73.70
2023-04-28T18:42:27.733Z,74.20
2023-04-28T18:44:59.494Z,75.20
2023-04-28T18:47:27.333Z,75.50
2023-04-28T18:49:55.490Z,76.50
2023-04-28T18:52:23.266Z,77.10
2023-04-28T18:54:52.379Z,77.90
2023-04-28T18:57:21.480Z,78.70
2023-04-28T18:59:50.096Z,77.50
2023-04-28T19:02:18.113Z,77.70
2023-04-28T19:04:46.457Z,78.80
2023-04-28T19:07:14.317Z,78.90
2023-04-28T19:09:42.846Z,79.30
2023-04-28T19:12:13.705Z,80.10
2023-04-28T19:14:42.559Z,80.40
2023-04-28T19:17:10.401Z,80.90
2023-04-28T19:19:38.704Z,81.30
2023-04-28T19:22:06.703Z,81.90
2023-04-28T19:24:34.937Z,82.50
2023-04-28T19:27:03.559Z,83.00
2023-04-28T19:29:30.989Z,83.10
2023-04-28T19:31:58.895Z,83.50
2023-04-28T19:34:27.453Z,83.60
2023-04-28T19:36:56.055Z,84.20
2023-04-28T19:39:23.690Z,84.80
2023-04-28T19:41:52.803Z,85.00
2023-04-28T19:44:20.918Z,85.60
2023-04-28T19:46:52.707Z,85.80
2023-04-28T19:49:20.438Z,86.00
2023-04-28T19:51:48.601Z,86.20
2023-04-28T19:54:16.803Z,86.20
2023-04-28T19:56:44.924Z,86.60
2023-04-28T19:59:12.755Z,87.90
2023-04-28T20:01:42.432Z,86.80
2023-04-28T20:04:10.033Z,87.40
2023-04-28T20:06:38.154Z,88.10
2023-04-28T20:09:06.403Z,88.90
2023-04-28T20:11:35.522Z,89.60
2023-04-28T20:14:03.973Z,89.90
2023-04-28T20:16:32.094Z,90.10
2023-04-28T20:18:59.995Z,90.30
2023-04-28T20:21:28.310Z,90.40
2023-04-28T20:23:56.227Z,90.50
2023-04-28T20:26:24.350Z,90.60
2023-04-28T20:28:51.990Z,90.80
2023-04-28T20:31:19.898Z,91.10
2023-04-28T20:33:47.315Z,91.00
2023-04-28T20:36:15.292Z,91.30
2023-04-28T20:38:43.779Z,91.50
2023-04-28T20:41:12.121Z,91.60
2023-04-28T20:43:41.339Z,91.90
2023-04-28T20:46:10.491Z,91.90
2023-04-28T20:48:38.289Z,92.00
2023-04-28T20:51:06.912Z,92.10
2023-04-28T20:53:34.805Z,92.30
2023-04-28T20:56:02.742Z,92.40
2023-04-28T20:58:31.995Z,92.70
2023-04-28T21:00:59.488Z,93.00
2023-04-28T21:03:27.374Z,93.00
2023-04-28T21:05:56.329Z,93.00
2023-04-28T21:08:24.447Z,93.30
2023-04-28T21:10:52.078Z,93.70
2023-04-28T21:13:19.975Z,93.90
2023-04-28T21:15:48.001Z,93.60
2023-04-28T21:18:39.222Z,93.80
2023-04-28T21:21:06.929Z,94.00
2023-04-28T21:23:39.109Z,94.10
2023-04-28T21:26:07.745Z,94.20
2023-04-28T21:28:36.243Z,94.20
2023-04-28T21:31:05.124Z,94.40
2023-04-28T21:33:33.426Z,94.50
2023-04-28T21:36:09.662Z,94.50
2023-04-28T21:38:38.255Z,94.80
2023-04-28T21:41:25.760Z,95.00
2023-04-28T21:43:53.857Z,95.20
2023-04-28T21:46:21.688Z,95.20
2023-04-28T21:48:49.700Z,95.20
2023-04-28T21:51:17.758Z,95.20
2023-04-28T21:53:45.651Z,95.30
2023-04-28T21:56:15.420Z,95.30
2023-04-28T21:58:43.500Z,95.60
2023-04-28T22:01:15.035Z,95.70
2023-04-28T22:03:43.341Z,96.50
2023-04-28T22:06:11.791Z,96.10
2023-04-28T22:08:40.217Z,96.30
2023-04-28T22:11:08.345Z,96.30
2023-04-28T22:13:38.317Z,96.40
2023-04-28T22:16:07.673Z,96.30
2023-04-28T22:18:35.471Z,96.70
2023-04-28T22:21:05.004Z,97.10
2023-04-28T22:23:33.002Z,97.30
2023-04-28T22:26:01.289Z,97.30
2023-04-28T22:28:29.042Z,97.20
2023-04-28T22:30:57.419Z,97.20
2023-04-28T22:33:25.748Z,97.60
2023-04-28T22:35:53.112Z,97.80
2023-04-28T22:38:20.861Z,97.70
2023-04-28T22:40:51.759Z,98.30
2023-04-28T22:43:19.658Z,98.40
2023-04-28T22:45:47.981Z,98.70
2023-04-28T22:48:17.539Z,99.20
2023-04-28T22:50:46.790Z,99.50
2023-04-28T22:53:14.728Z,99.60
2023-04-28T22:55:43.474Z,99.60
2023-04-28T22:58:12.290Z,99.90
2023-04-28T23:00:40.054Z,99.90
2023-04-28T23:03:08.291Z,99.90
2023-04-28T23:05:39.791Z,99.90
2023-04-28T23:08:07.616Z,99.90
2023-04-28T23:10:35.931Z,99.90
2023-04-28T23:13:03.755Z,99.90
2023-04-28T23:15:34.932Z,99.90
2023-04-28T23:18:02.683Z,99.90
2023-04-28T23:20:30.363Z,99.90
2023-04-28T23:22:58.933Z,99.90
2023-04-28T23:25:26.564Z,99.90
2023-04-28T23:27:54.308Z,99.90
2023-04-28T23:30:22.055Z,99.90
2023-04-28T23:32:49.799Z,99.90
2023-04-28T23:35:17.665Z,99.90
2023-04-28T23:37:45.406Z,99.90
2023-04-28T23:40:13.799Z,99.90
2023-04-28T23:42:43.632Z,99.90
2023-04-28T23:45:11.391Z,99.90
2023-04-28T23:47:39.140Z,99.90
2023-04-28T23:50:08.346Z,99.90
2023-04-28T23:52:36.789Z,99.90
2023-04-28T23:55:05.097Z,99.90
2023-04-28T23:57:33.158Z,99.90
